Time;durP1;ratioP1;P1;durP2;ratioP2;P2;SDS_P1;SDS_P2;PMS_P1;PMS_P2;Temp;Humidity;BMP_temperature;BMP_pressure;BME280_temperature;BME280_humidity;BME280_pressure;Samples;Min_cycle;Max_cycle;Signal;HPM_P1;HPM_P2
2021/08/24 00:01:05;;;;;;;;;;;;;;;21.14;47.71;95021.13;5014940;28;20087;-78
2021/08/24 00:03:34;;;;;;;8.35;4.05;;;;;;;21.05;48.11;95022.91;5032437;28;19979;-78
2021/08/24 00:06:00;;;;;;;4.85;4.30;;;;;;;21.04;48.37;95005.47;5032148;28;20090;-78
2021/08/24 00:08:25;;;;;;;7.35;4.65;;;;;;;21.01;48.43;95008.72;5032260;28;20482;-78
2021/08/24 00:11:08;;;;;;;8.50;5.00;;;;;;;21.13;48.14;95019.56;5031278;28;20921;-77
2021/08/24 00:13:39;;;;;;;6.25;3.85;;;;;;;21.17;47.91;95012.63;4997278;28;20029;-77
2021/08/24 00:16:04;;;;;;;5.00;3.95;;;;;;;21.12;48.19;95010.84;5032569;28;20086;-77
2021/08/24 00:18:31;;;;;;;7.05;4.15;;;;;;;21.06;48.23;95012.03;5032263;28;20112;-78
2021/08/24 00:20:57;;;;;;;9.45;4.35;;;;;;;21.00;48.26;95004.50;5032313;28;20505;-77
2021/08/24 00:23:23;;;;;;;7.97;5.03;;;;;;;20.91;48.67;95007.03;5032869;28;20025;-78
2021/08/24 00:25:52;;;;;;;8.93;4.30;;;;;;;20.83;49.01;95011.13;5016018;28;20025;-78
2021/08/24 00:28:18;;;;;;;5.43;4.53;;;;;;;20.78;48.89;95019.13;5037180;28;20033;-78
2021/08/24 00:30:43;;;;;;;9.85;4.40;;;;;;;20.70;49.46;95011.09;5034604;28;20034;-77
2021/08/24 00:33:09;;;;;;;10.48;4.20;;;;;;;20.71;49.67;95005.53;5031827;28;20335;-78
2021/08/24 00:35:38;;;;;;;6.30;4.43;;;;;;;20.68;49.87;95014.81;5031856;28;20033;-78
2021/08/24 00:38:07;;;;;;;5.90;4.57;;;;;;;20.82;49.92;95012.19;5039595;23;20451;-78
2021/08/24 00:40:33;;;;;;;9.48;4.65;;;;;;;21.02;49.34;95018.22;5054588;28;20408;-78
2021/08/24 00:43:06;;;;;;;9.52;4.90;;;;;;;21.09;49.17;95008.03;5053537;28;20393;-78
2021/08/24 00:45:34;;;;;;;6.47;4.95;;;;;;;21.22;48.86;95028.41;5041256;28;20404;-78
2021/08/24 00:48:00;;;;;;;8.32;4.90;;;;;;;21.30;48.56;95011.09;5059854;28;20392;-78
2021/08/24 00:50:34;;;;;;;8.80;5.33;;;;;;;21.21;48.62;95008.31;5057538;28;20416;-78
2021/08/24 00:53:00;;;;;;;7.35;4.75;;;;;;;21.32;48.78;95017.69;5052489;28;20471;-78
2021/08/24 00:55:26;;;;;;;9.17;4.87;;;;;;;21.24;49.26;95010.38;5053134;28;20400;-77
2021/08/24 00:57:58;;;;;;;9.57;5.00;;;;;;;21.23;49.17;95008.81;5052119;28;20400;-78
2021/08/24 01:00:31;;;;;;;8.50;5.05;;;;;;;21.22;49.26;95010.69;5051837;28;20407;-77
2021/08/24 01:02:59;;;;;;;6.93;4.68;;;;;;;21.14;49.28;94994.69;5020222;28;20398;-78
2021/08/24 01:05:24;;;;;;;10.80;4.93;;;;;;;21.24;49.18;94994.50;5036211;28;20396;-78
2021/08/24 01:07:53;;;;;;;8.33;5.10;;;;;;;21.15;49.82;95012.94;5035289;28;20397;-78
2021/08/24 01:10:26;;;;;;;13.35;4.80;;;;;;;21.03;49.97;94985.41;5035830;28;20033;-78
2021/08/24 01:13:26;;;;;;;7.65;4.75;;;;;;;20.71;50.71;94997.59;5054157;28;20091;-78
2021/08/24 01:16:12;;;;;;;9.60;4.22;;;;;;;20.58;51.00;95003.63;5000878;28;20570;-78
2021/08/24 01:19:07;;;;;;;9.27;4.65;;;;;;;20.44;51.62;94993.00;5054215;28;20484;-78
2021/08/24 01:24:29;;;;;;;;;;;;;;;20.25;52.37;94995.66;5047788;22;19924;-78
2021/08/24 01:27:02;;;;;;;9.50;4.60;;;;;;;20.15;52.77;94985.25;5017153;28;20016;-78
2021/08/24 01:29:46;;;;;;;;;;;;;;;20.17;52.49;94991.00;5018523;28;20091;-78
2021/08/24 01:32:14;;;;;;;;;;;;;;;20.20;52.57;94993.09;5035460;28;20316;-78
2021/08/24 01:34:51;;;;;;;;;;;;;;;20.15;52.75;94995.81;5018148;28;19917;-78
2021/08/24 01:37:37;;;;;;;;;;;;;;;20.03;53.12;94992.84;5001380;28;19935;-79
2021/08/24 01:40:07;;;;;;;6.88;5.40;;;;;;;19.99;53.16;94997.09;5032606;28;19924;-78
2021/08/24 01:42:36;;;;;;;7.07;4.75;;;;;;;20.02;53.41;94986.00;5000491;28;20025;-78
2021/08/24 01:45:01;;;;;;;6.72;4.95;;;;;;;20.06;53.14;94992.25;5016688;28;20029;-78
2021/08/24 01:47:26;;;;;;;6.50;4.90;;;;;;;20.01;53.27;94985.22;5034215;28;20492;-77
2021/08/24 01:49:58;;;;;;;5.93;4.70;;;;;;;20.05;53.30;94990.69;5033509;28;20033;-77
2021/08/24 01:52:33;;;;;;;9.18;5.75;;;;;;;20.21;53.10;94988.59;5016039;28;20472;-78
2021/08/24 01:55:00;;;;;;;9.80;4.80;;;;;;;20.32;52.78;94990.00;5000015;28;20022;-78
2021/08/24 01:57:40;;;;;;;7.95;4.82;;;;;;;20.33;52.63;94995.00;5000822;28;20033;-78
2021/08/24 02:00:08;;;;;;;6.03;4.88;;;;;;;20.27;53.03;95004.06;5018304;28;20111;-78
2021/08/24 02:02:37;;;;;;;8.75;5.07;;;;;;;20.27;52.80;94998.00;5035180;28;20104;-78
2021/08/24 02:05:10;;;;;;;14.23;6.00;;;;;;;20.35;52.92;94990.22;5016277;28;20402;-78
2021/08/24 02:07:35;;;;;;;7.00;5.10;;;;;;;20.49;52.63;95000.84;4984493;28;20044;-78
2021/08/24 02:12:52;;;;;;;5.28;4.80;;;;;;;20.45;52.61;95012.28;5066570;22;20126;-78
2021/08/24 02:15:19;;;;;;;8.27;5.95;;;;;;;20.29;53.29;94999.28;5050352;28;20029;-78
2021/08/24 02:17:46;;;;;;;5.97;5.00;;;;;;;20.31;53.31;94994.50;5035402;28;20079;-78
2021/08/24 02:20:22;;;;;;;9.25;5.47;;;;;;;20.33;53.10;95002.13;5051362;22;20049;-78
2021/08/24 02:22:53;;;;;;;7.22;5.70;;;;;;;20.36;53.33;94991.78;5016634;28;20417;-78
2021/08/24 02:25:24;;;;;;;6.40;5.57;;;;;;;20.38;53.24;94994.16;5015833;28;20022;-78
2021/08/24 02:28:29;;;;;;;9.60;5.03;;;;;;;20.47;52.96;94996.94;4999954;28;20037;-78
2021/08/24 02:30:58;;;;;;;10.05;5.35;;;;;;;20.45;52.85;94989.28;5033708;28;20049;-78
2021/08/24 02:33:24;;;;;;;14.60;5.38;;;;;;;20.49;52.76;94992.91;5000050;28;20055;-78
2021/08/24 02:35:57;;;;;;;7.38;5.20;;;;;;;20.52;53.00;94986.31;5000695;28;20489;-78
2021/08/24 02:38:27;;;;;;;12.57;5.65;;;;;;;20.57;52.88;94980.91;5016236;28;20034;-78
2021/08/24 02:41:03;;;;;;;12.50;5.60;;;;;;;20.63;52.55;94980.53;5016598;28;20029;-78
2021/08/24 02:43:32;;;;;;;;;;;;;;;20.68;52.35;94980.47;4999055;28;20497;-78
2021/08/24 02:45:59;;;;;;;;;;;;;;;20.66;52.29;94981.81;5016320;28;19984;-78
2021/08/24 02:48:24;;;;;;;11.93;5.40;;;;;;;20.63;52.09;94974.47;5015827;28;19917;-78
2021/08/24 02:50:50;;;;;;;10.25;5.70;;;;;;;20.64;51.91;94976.81;4999573;28;20037;-78
2021/08/24 02:53:15;;;;;;;;;;;;;;;20.70;52.04;94979.38;5038792;22;20124;-78
2021/08/24 02:55:41;;;;;;;11.80;6.07;;;;;;;20.66;52.17;94979.16;5015743;28;19955;-78
2021/08/24 02:58:06;;;;;;;17.15;6.85;;;;;;;20.67;52.13;94980.75;5033198;28;20037;-78
2021/08/24 03:00:31;;;;;;;6.45;5.05;;;;;;;20.68;52.26;94988.41;5015779;28;20033;-78
2021/08/24 03:02:57;;;;;;;9.38;5.10;;;;;;;20.68;52.46;94988.41;4998803;28;20028;-78
2021/08/24 03:05:22;;;;;;;7.47;5.20;;;;;;;20.69;51.97;94983.88;5033159;28;20028;-78
2021/08/24 03:07:48;;;;;;;13.05;5.55;;;;;;;20.67;51.81;94986.03;5015425;28;20087;-78
2021/08/24 03:10:14;;;;;;;7.72;4.47;;;;;;;20.65;51.72;94982.88;4999203;28;20041;-78
2021/08/24 03:12:54;;;;;;;7.50;5.03;;;;;;;20.61;51.61;94992.47;5014699;28;20038;-78
2021/08/24 03:15:26;;;;;;;10.55;5.47;;;;;;;20.58;51.70;94990.41;5016203;28;20034;-78
2021/08/24 03:17:56;;;;;;;6.25;5.32;;;;;;;20.52;51.79;94981.78;4996362;28;20489;-79
2021/08/24 03:20:24;;;;;;;11.43;5.93;;;;;;;20.41;53.11;94988.31;4999835;28;20022;-78
2021/08/24 03:22:49;;;;;;;13.23;6.05;;;;;;;20.37;53.50;94988.09;4996322;28;20092;-78
2021/08/24 03:25:15;;;;;;;6.40;5.30;;;;;;;20.38;52.59;94988.88;5015132;28;20460;-78
2021/08/24 03:27:41;;;;;;;6.85;5.20;;;;;;;20.31;51.81;94989.22;4998913;28;20037;-77
2021/08/24 03:30:09;;;;;;;14.07;5.63;;;;;;;20.24;52.23;94988.81;5014782;28;20421;-79
2021/08/24 03:32:35;;;;;;;10.30;5.50;;;;;;;20.21;52.40;94988.59;4996094;28;20033;-78
2021/08/24 03:35:04;;;;;;;8.43;5.25;;;;;;;20.20;52.24;94987.81;5032019;28;20517;-78
2021/08/24 03:37:29;;;;;;;9.82;5.18;;;;;;;20.15;52.26;94984.47;5032599;28;20111;-78
2021/08/24 03:39:55;;;;;;;10.88;5.38;;;;;;;20.13;52.19;94987.38;5032616;28;20461;-78
2021/08/24 03:42:20;;;;;;;14.88;5.20;;;;;;;20.11;52.33;94984.25;5032759;28;20213;-79
2021/08/24 03:44:46;;;;;;;16.90;5.60;;;;;;;20.09;52.20;94983.75;5015014;28;20056;-78
2021/08/24 03:47:12;;;;;;;13.57;5.70;;;;;;;20.06;52.12;94984.34;4998669;28;20029;-78
2021/08/24 03:49:38;;;;;;;10.07;5.35;;;;;;;20.05;52.16;94983.56;5031332;28;20033;-78
2021/08/24 03:52:06;;;;;;;;;;;;;;;20.06;51.74;94986.97;5031370;28;20420;-78
2021/08/24 03:54:31;;;;;;;;;;;;;;;20.01;52.05;94979.94;5032727;28;20367;-78
2021/08/24 03:56:56;;;;;;;11.38;6.00;;;;;;;19.95;52.13;94982.91;5032895;28;19913;-78
2021/08/24 03:59:25;;;;;;;13.73;6.00;;;;;;;20.06;51.84;94989.63;5031185;28;20452;-78
2021/08/24 04:01:50;;;;;;;9.85;5.28;;;;;;;20.30;51.34;94986.88;5014598;28;20507;-78
2021/08/24 04:04:15;;;;;;;;;;;;;;;20.38;51.12;94988.88;5032819;28;20033;-78
2021/08/24 04:06:41;;;;;;;8.40;5.90;;;;;;;20.43;51.05;94988.81;5013921;28;19913;-78
2021/08/24 04:09:06;;;;;;;10.40;6.40;;;;;;;20.50;50.96;94991.06;5031872;28;20296;-79
2021/08/24 04:11:32;;;;;;;9.48;6.13;;;;;;;20.63;50.58;94998.25;5014207;28;20033;-78
2021/08/24 04:14:00;;;;;;;20.70;6.30;;;;;;;20.97;49.86;94998.69;5012283;28;20493;-78
2021/08/24 04:16:26;;;;;;;19.10;6.63;;;;;;;21.45;48.46;95000.22;5012974;28;20405;-78
2021/08/24 04:18:51;;;;;;;10.65;5.80;;;;;;;22.15;46.45;94995.31;5013453;28;20477;-78
2021/08/24 04:21:17;;;;;;;12.60;5.82;;;;;;;22.79;44.92;94999.63;5032014;28;20025;-79
2021/08/24 04:23:43;;;;;;;9.57;5.40;;;;;;;23.21;44.26;95001.69;4998230;28;20057;-79
2021/08/24 04:26:09;;;;;;;12.55;6.35;;;;;;;23.64;42.74;94990.47;5019717;23;21039;-78
2021/08/24 04:28:35;;;;;;;13.13;7.22;;;;;;;24.29;41.21;94992.25;5032370;28;20037;-78
2021/08/24 04:31:05;;;;;;;15.30;6.45;;;;;;;24.93;40.03;94997.63;5014689;28;20038;-78
2021/08/24 04:33:31;;;;;;;13.57;5.68;;;;;;;25.47;38.73;94995.22;5032920;28;20448;-78
2021/08/24 04:35:56;;;;;;;10.88;5.57;;;;;;;26.07;37.54;94996.00;4999379;28;20037;-78
2021/08/24 04:38:22;;;;;;;13.25;7.30;;;;;;;26.57;36.33;94996.69;5033426;28;20033;-78
2021/08/24 04:40:48;;;;;;;16.08;7.47;;;;;;;27.17;35.47;95003.31;4999277;28;20060;-78
2021/08/24 04:43:13;;;;;;;14.88;8.50;;;;;;;27.89;33.96;95006.31;5014252;28;20102;-78
2021/08/24 04:45:39;;;;;;;20.25;9.52;;;;;;;28.57;33.12;95006.34;5034823;28;20128;-78
2021/08/24 04:48:04;;;;;;;19.42;10.48;;;;;;;29.01;32.34;95009.06;5035940;28;20026;-78
2021/08/24 04:50:36;;;;;;;25.17;9.48;;;;;;;29.71;31.03;95006.56;5036185;28;20033;-78
2021/08/24 04:53:02;;;;;;;18.20;9.02;;;;;;;30.46;29.97;95002.81;5038767;28;20030;-78
2021/08/24 04:55:33;;;;;;;14.70;8.70;;;;;;;30.94;29.07;95009.50;5054383;22;20552;-78
2021/08/24 04:57:59;;;;;;;22.10;8.88;;;;;;;31.64;27.93;95011.81;5039110;28;20061;-78
2021/08/24 05:00:25;;;;;;;19.27;7.88;;;;;;;32.54;26.70;95003.06;5035803;28;20112;-78
2021/08/24 05:02:50;;;;;;;10.77;6.10;;;;;;;33.31;25.39;95002.31;5018944;28;20390;-78
2021/08/24 05:05:15;;;;;;;;;;;;;;;33.94;24.27;95003.97;5018225;28;20030;-78
2021/08/24 05:07:41;;;;;;;14.43;4.77;;;;;;;34.35;24.15;95008.44;5017713;28;19916;-79
2021/08/24 05:10:07;;;;;;;;;;;;;;;34.87;23.59;95007.13;5035672;28;20866;-78
2021/08/24 05:12:32;;;;;;;6.22;4.88;;;;;;;35.63;22.59;94998.69;5014834;28;19917;-78
2021/08/24 05:14:58;;;;;;;12.02;4.60;;;;;;;35.95;21.96;95008.72;5034851;28;20057;-79
2021/08/24 05:17:23;;;;;;;13.32;4.70;;;;;;;36.47;21.31;95001.63;5040921;22;20049;-79
2021/08/24 05:19:49;;;;;;;14.63;4.43;;;;;;;37.12;21.25;95005.56;5034595;28;20060;-79
2021/08/24 05:22:14;;;;;;;12.18;4.32;;;;;;;37.91;19.46;95007.66;5039115;22;20050;-79
2021/08/24 05:24:39;;;;;;;17.00;4.28;;;;;;;38.57;19.25;95008.13;5032787;28;20424;-77
2021/08/24 05:27:05;;;;;;;7.68;4.10;;;;;;;39.15;18.47;95017.09;5034016;28;20460;-77
2021/08/24 05:29:31;;;;;;;16.08;4.80;;;;;;;39.63;17.72;95012.50;5018302;28;20112;-79
2021/08/24 05:31:56;;;;;;;6.15;4.20;;;;;;;40.07;17.45;95019.53;5041243;22;20159;-79
2021/08/24 05:34:22;;;;;;;10.63;4.07;;;;;;;40.54;16.97;95012.03;5036793;28;20029;-78
2021/08/24 05:36:47;;;;;;;6.07;4.32;;;;;;;40.83;16.69;95014.16;5042318;22;20076;-78
2021/08/24 05:39:12;;;;;;;11.70;4.25;;;;;;;41.18;16.08;95009.88;5034489;28;20438;-78
2021/08/24 05:41:39;;;;;;;12.43;4.60;;;;;;;41.59;15.78;95009.31;5052062;22;20460;-78
2021/08/24 05:44:05;;;;;;;14.52;5.18;;;;;;;41.95;15.26;95014.66;5064674;22;20513;-78
2021/08/24 05:46:30;;;;;;;10.35;4.85;;;;;;;42.46;14.91;95007.41;5035029;28;20064;-79
2021/08/24 05:48:56;;;;;;;23.45;5.53;;;;;;;42.55;14.83;95007.59;5037360;28;20033;-81
2021/08/24 05:51:27;;;;;;;16.65;5.18;;;;;;;42.72;14.76;95007.50;5017064;28;20045;-79
2021/08/24 05:53:53;;;;;;;8.48;4.53;;;;;;;42.93;14.68;95003.41;5037995;28;20555;-80
2021/08/24 05:56:20;;;;;;;15.77;4.50;;;;;;;43.41;14.49;95005.81;4985761;28;20036;-80
2021/08/24 05:58:45;;;;;;;21.52;4.50;;;;;;;43.77;14.02;95010.13;5038047;28;20045;-80
2021/08/24 06:01:17;;;;;;;16.55;5.00;;;;;;;43.90;13.98;95012.84;5042145;22;20041;-80
2021/08/24 06:03:42;;;;;;;22.98;5.20;;;;;;;43.98;14.15;95019.63;5036322;28;20029;-80
2021/08/24 06:06:15;;;;;;;14.82;4.72;;;;;;;43.93;14.32;95012.72;5038358;28;20032;-80
2021/08/24 06:08:41;;;;;;;10.57;4.65;;;;;;;43.62;14.35;95009.09;5005157;28;20034;-80
2021/08/24 06:11:06;;;;;;;14.65;5.00;;;;;;;42.82;15.06;95004.47;5045744;28;20519;-79
2021/08/24 06:13:32;;;;;;;14.02;5.38;;;;;;;42.02;15.71;95003.56;5004223;28;20040;-80
2021/08/24 06:16:01;;;;;;;14.73;5.32;;;;;;;41.33;16.09;95003.69;5061438;22;20118;-79
2021/08/24 06:18:27;;;;;;;17.35;5.72;;;;;;;40.67;16.64;94993.03;5042982;22;20045;-80
2021/08/24 06:20:52;;;;;;;13.77;5.38;;;;;;;39.91;17.82;94996.44;5038249;28;20030;-80
2021/08/24 06:23:17;;;;;;;19.10;5.40;;;;;;;39.11;18.74;94999.28;5038502;28;20029;-80
2021/08/24 06:25:43;;;;;;;19.90;6.45;;;;;;;38.67;19.19;94993.63;5040172;28;20378;-79
2021/08/24 06:28:08;;;;;;;17.13;5.85;;;;;;;38.21;19.54;94988.75;5044150;28;20041;-78
2021/08/24 06:30:34;;;;;;;11.25;6.05;;;;;;;37.82;20.47;94991.84;5044838;28;20036;-78
2021/08/24 06:32:59;;;;;;;18.42;6.20;;;;;;;37.40;20.54;94996.44;5045844;28;20021;-78
2021/08/24 06:35:24;;;;;;;20.60;5.95;;;;;;;36.61;21.67;94998.06;5029051;28;20071;-78
2021/08/24 06:37:50;;;;;;;24.38;6.22;;;;;;;35.99;22.31;94998.66;5011388;28;20037;-79
2021/08/24 06:40:17;;;;;;;24.60;6.97;;;;;;;35.42;23.25;94993.28;5003059;28;20489;-80
2021/08/24 06:42:47;;;;;;;35.88;7.18;;;;;;;34.64;24.32;95003.91;5037277;28;20022;-79
2021/08/24 06:45:25;;;;;;;19.45;6.63;;;;;;;34.12;24.54;95000.59;5039876;28;20057;-79
2021/08/24 06:47:51;;;;;;;14.85;7.28;;;;;;;33.83;25.25;94995.00;5041764;28;20107;-79
2021/08/24 06:50:17;;;;;;;11.27;6.38;;;;;;;33.72;25.65;94996.88;5036887;28;20045;-80
2021/08/24 06:52:42;;;;;;;;;;;;;;;33.22;26.30;95001.09;5036913;28;20033;-80
2021/08/24 06:55:09;;;;;;;13.03;6.00;;;;;;;33.06;26.98;94999.41;5036008;28;19921;-79
2021/08/24 06:57:37;;;;;;;19.67;6.22;;;;;;;33.10;26.33;94996.75;5036831;28;20540;-79
2021/08/24 07:00:05;;;;;;;13.27;6.50;;;;;;;32.73;26.99;95002.91;5037134;28;20029;-79
2021/08/24 07:02:30;;;;;;;17.63;7.07;;;;;;;32.55;27.01;94999.25;5019691;28;20056;-80
2021/08/24 07:04:55;;;;;;;19.63;9.00;;;;;;;32.41;27.13;95009.84;5036182;28;20025;-79
2021/08/24 07:07:22;;;;;;;;;;;;;;;32.49;27.39;95008.78;5037489;28;20026;-79
2021/08/24 07:09:53;;;;;;;17.98;6.03;;;;;;;32.72;27.31;94997.88;5037422;28;19921;-80
2021/08/24 07:12:19;;;;;;;17.33;6.50;;;;;;;32.92;26.86;94998.50;5052174;22;20034;-79
2021/08/24 07:14:47;;;;;;;17.52;5.78;;;;;;;33.08;26.60;94997.13;5037342;28;20083;-79
2021/08/24 07:17:15;;;;;;;11.50;5.72;;;;;;;33.20;26.74;94996.06;5037093;28;20028;-80
2021/08/24 07:19:40;;;;;;;16.23;6.78;;;;;;;33.31;26.58;94994.22;5018848;28;20065;-79
2021/08/24 07:22:05;;;;;;;15.82;6.38;;;;;;;33.28;26.31;94986.13;5035027;28;20040;-79
2021/08/24 07:24:31;;;;;;;16.15;6.38;;;;;;;33.22;26.54;94993.00;5036299;28;20044;-80
2021/08/24 07:26:56;;;;;;;11.27;6.40;;;;;;;33.06;27.27;94995.94;5035531;28;20409;-79
2021/08/24 07:29:22;;;;;;;18.23;6.75;;;;;;;33.17;26.81;94991.41;5036727;28;20030;-80
2021/08/24 07:31:47;;;;;;;13.48;6.30;;;;;;;32.80;26.94;94992.22;5037025;28;20029;-80
2021/08/24 07:34:13;;;;;;;18.58;6.85;;;;;;;32.46;27.16;94991.44;5034971;28;20038;-79
2021/08/24 07:36:38;;;;;;;12.43;6.28;;;;;;;32.24;27.78;94985.00;5036181;28;20052;-79
2021/08/24 07:39:04;;;;;;;14.55;6.78;;;;;;;31.99;27.89;94985.81;5035690;28;20436;-80
2021/08/24 07:41:32;;;;;;;11.48;6.88;;;;;;;32.05;28.31;94982.44;5018827;28;20033;-80
2021/08/24 07:43:58;;;;;;;12.80;6.13;;;;;;;32.24;27.97;94979.63;5018979;28;20032;-78
2021/08/24 07:46:23;;;;;;;24.10;7.33;;;;;;;32.35;27.40;94971.69;5018122;28;20398;-80
2021/08/24 07:48:49;;;;;;;26.15;6.43;;;;;;;32.29;27.98;94973.16;5033293;28;20029;-79
2021/08/24 07:51:14;;;;;;;17.63;6.78;;;;;;;32.25;27.36;94970.41;5033694;28;20067;-80
2021/08/24 07:53:39;;;;;;;;;;;;;;;32.10;27.12;94978.66;5036310;28;20040;-80
2021/08/24 07:56:06;;;;;;;15.07;6.67;;;;;;;32.04;27.65;94975.50;5034766;28;19945;-80
2021/08/24 07:58:32;;;;;;;20.02;6.05;;;;;;;32.11;27.23;94978.31;5036113;28;20104;-79
2021/08/24 08:00:57;;;;;;;16.70;6.15;;;;;;;32.12;26.81;94981.78;5035321;28;20057;-80
2021/08/24 08:03:23;;;;;;;20.25;6.35;;;;;;;32.04;27.15;94980.88;5035249;28;20038;-79
2021/08/24 08:05:48;;;;;;;22.15;6.30;;;;;;;32.09;26.69;94975.22;5036559;28;20025;-79
2021/08/24 08:08:14;;;;;;;17.77;5.82;;;;;;;31.93;26.64;94964.63;5040344;22;20501;-79
2021/08/24 08:10:39;;;;;;;13.85;6.43;;;;;;;31.92;26.83;94968.47;5036098;28;20042;-80
2021/08/24 08:13:05;;;;;;;10.25;5.30;;;;;;;32.00;27.12;94974.69;5112755;22;20418;-79
2021/08/24 08:15:33;;;;;;;20.05;5.85;;;;;;;32.14;27.01;94977.56;5034981;28;20489;-79
2021/08/24 08:18:00;;;;;;;12.50;5.80;;;;;;;32.16;27.14;94971.81;5036052;28;20025;-79
2021/08/24 08:20:25;;;;;;;;;;;;;;;32.06;26.88;94975.94;5002867;28;20496;-79
2021/08/24 08:22:57;;;;;;;18.50;5.97;;;;;;;32.07;26.88;94979.41;5035607;28;19939;-79
2021/08/24 08:25:23;;;;;;;23.92;6.55;;;;;;;31.94;26.96;94981.53;5018324;28;20037;-78
2021/08/24 08:27:48;;;;;;;12.55;6.32;;;;;;;31.45;27.28;94976.19;5016657;28;20038;-78
2021/08/24 08:30:14;;;;;;;14.65;5.97;;;;;;;31.40;27.05;94969.19;5035683;28;20025;-79
2021/08/24 08:32:39;;;;;;;21.40;6.28;;;;;;;31.46;27.45;94965.06;5035727;28;20033;-78
2021/08/24 08:35:06;;;;;;;8.50;5.50;;;;;;;31.56;27.70;94967.13;5001584;28;20045;-79
2021/08/24 08:37:32;;;;;;;13.27;5.80;;;;;;;31.64;27.02;94963.44;5035432;28;20034;-79
2021/08/24 08:39:57;;;;;;;13.32;5.68;;;;;;;31.72;26.88;94960.81;5034622;28;20022;-78
2021/08/24 08:42:40;;;;;;;14.50;5.57;;;;;;;31.70;26.93;94957.72;5034495;28;20041;-79
2021/08/24 08:45:14;;;;;;;16.10;5.90;;;;;;;31.80;27.39;94954.44;5001129;28;20398;-78
2021/08/24 08:47:58;;;;;;;12.60;6.03;;;;;;;31.83;26.70;94953.72;4999116;28;20072;-78
2021/08/24 08:50:40;;;;;;;11.02;6.25;;;;;;;31.65;27.17;94953.44;5017951;28;20033;-78
2021/08/24 08:53:12;;;;;;;;;;;;;;;31.56;27.29;94951.00;5017666;28;20100;-79
2021/08/24 08:55:43;;;;;;;14.80;5.73;;;;;;;31.44;26.93;94942.41;5035781;28;19917;-79
2021/08/24 08:58:14;;;;;;;10.80;5.70;;;;;;;31.47;26.69;94944.34;5017080;28;20701;-78
2021/08/24 09:00:53;;;;;;;8.63;5.15;;;;;;;31.30;26.19;94942.94;5025510;28;20046;-78
2021/08/24 09:03:26;;;;;;;10.52;5.05;;;;;;;31.33;25.81;94947.59;5062584;23;20060;-78
2021/08/24 09:05:51;;;;;;;8.50;5.10;;;;;;;31.42;25.38;94940.06;5021831;28;20040;-79
2021/08/24 09:08:18;;;;;;;8.75;5.00;;;;;;;31.48;25.03;94938.63;5015990;28;20030;-79
2021/08/24 09:10:45;;;;;;;12.90;5.82;;;;;;;31.61;24.83;94937.28;5000459;28;20416;-78
2021/08/24 09:13:20;;;;;;;;;;;;;;;31.70;25.78;94938.91;5016355;28;20122;-78
2021/08/24 09:15:59;;;;;;;11.32;5.10;;;;;;;31.58;25.53;94937.22;5018851;28;19917;-78
2021/08/24 09:18:47;;;;;;;9.85;5.50;;;;;;;31.45;25.28;94931.28;5017530;28;20400;-78
2021/08/24 09:21:17;;;;;;;14.32;5.10;;;;;;;31.03;25.28;94932.13;5019432;28;20037;-78
2021/08/24 09:23:42;;;;;;;9.00;5.10;;;;;;;30.94;25.18;94918.19;5032577;28;20421;-78
2021/08/24 09:26:20;;;;;;;13.07;5.57;;;;;;;30.82;25.90;94926.41;5029879;28;20513;-78
2021/08/24 09:28:45;;;;;;;16.17;5.65;;;;;;;30.64;25.96;94917.28;5013341;28;20026;-78
2021/08/24 09:31:15;;;;;;;13.80;5.78;;;;;;;30.59;26.21;94915.66;4996630;28;20036;-78
2021/08/24 09:33:40;;;;;;;12.20;5.28;;;;;;;30.65;26.00;94914.25;4996973;28;20026;-78
2021/08/24 09:36:06;;;;;;;13.93;5.05;;;;;;;30.74;26.25;94912.06;4994865;28;20033;-78
2021/08/24 09:38:36;;;;;;;7.97;5.07;;;;;;;30.85;26.05;94912.28;5013643;28;20026;-78
2021/08/24 09:41:24;;;;;;;9.20;4.45;;;;;;;30.86;25.98;94903.06;5012957;28;20072;-78
2021/08/24 09:43:50;;;;;;;11.02;5.20;;;;;;;30.43;26.04;94902.31;5013817;28;20112;-78
2021/08/24 09:46:15;;;;;;;5.22;4.72;;;;;;;30.11;26.43;94906.31;5013855;28;20026;-78
2021/08/24 09:48:53;;;;;;;8.85;4.20;;;;;;;30.07;26.61;94908.13;5013896;28;20088;-78
2021/08/24 09:51:44;;;;;;;5.70;4.63;;;;;;;29.75;26.99;94910.91;4995419;28;20029;-78
2021/08/24 09:54:19;;;;;;;12.20;4.60;;;;;;;30.01;25.64;94912.22;5012767;28;20032;-78
2021/08/24 09:56:52;;;;;;;7.97;4.43;;;;;;;29.99;25.70;94909.09;5013839;28;20061;-78
2021/08/24 09:59:26;;;;;;;10.63;5.15;;;;;;;30.17;25.25;94904.88;4993724;28;20423;-78
2021/08/24 10:01:53;;;;;;;10.32;4.78;;;;;;;30.43;25.02;94896.97;5029727;22;20512;-78
2021/08/24 10:04:18;;;;;;;;;;;;;;;30.48;24.96;94898.56;5033889;28;20104;-78
2021/08/24 10:06:49;;;;;;;;;;;;;;;30.46;25.06;94896.25;5033058;28;20408;-78
2021/08/24 10:09:16;;;;;;;;;;;;;;;30.33;25.05;94886.81;5032705;28;20384;-78
2021/08/24 10:11:41;;;;;;;;;;;;;;;30.38;25.22;94881.13;5032959;28;19932;-78
2021/08/24 10:14:18;;;;;;;;;;;;;;;30.43;25.37;94875.50;5032429;28;19917;-78
2021/08/24 10:16:47;;;;;;;8.73;5.05;;;;;;;30.31;25.33;94862.25;5033034;28;20390;-78
2021/08/24 10:19:29;;;;;;;11.20;5.05;;;;;;;30.52;25.67;94871.78;5030984;28;20886;-77
2021/08/24 10:22:01;;;;;;;;;;;;;;;30.71;25.70;94874.44;5032185;28;20051;-78
2021/08/24 10:24:32;;;;;;;;;;;;;;;30.69;25.01;94871.34;5038285;22;19965;-78
2021/08/24 10:27:00;;;;;;;;;;;;;;;30.69;24.88;94866.75;5039103;22;19964;-78
2021/08/24 10:29:28;;;;;;;;;;;;;;;30.62;25.04;94873.91;5033590;28;19917;-78
2021/08/24 10:31:54;;;;;;;;;;;;;;;30.57;24.91;94864.22;5032377;28;19964;-78
2021/08/24 10:34:39;;;;;;;;;;;;;;;30.54;24.88;94867.59;5030193;28;19925;-78
2021/08/24 10:37:22;;;;;;;;;;;;;;;30.54;24.80;94858.78;5033477;28;19913;-78
2021/08/24 10:39:48;;;;;;;;;;;;;;;30.59;24.94;94861.16;5033547;28;19917;-78
2021/08/24 10:42:16;;;;;;;11.00;4.90;;;;;;;30.27;25.06;94850.69;5032443;28;20347;-78
2021/08/24 10:44:49;;;;;;;9.07;4.80;;;;;;;29.98;25.18;94840.53;5033459;28;20029;-78
2021/08/24 10:47:14;;;;;;;13.25;5.47;;;;;;;30.08;25.35;94842.63;5013846;28;20414;-78
2021/08/24 10:49:40;;;;;;;16.15;5.20;;;;;;;30.28;25.12;94830.75;5033599;28;20129;-78
2021/08/24 10:52:12;;;;;;;7.47;4.93;;;;;;;30.43;25.26;94832.56;4998770;28;20050;-78
2021/08/24 10:57:32;;;;;;;11.48;5.18;;;;;;;30.52;25.37;94839.59;5049641;22;20053;-78
2021/08/24 11:00:07;;;;;;;14.80;4.82;;;;;;;30.39;25.45;94837.06;5038318;22;20037;-78
2021/08/24 11:02:33;;;;;;;8.65;4.93;;;;;;;30.13;25.39;94831.63;5031353;28;20112;-78
2021/08/24 11:05:28;;;;;;;12.10;5.05;;;;;;;30.11;25.50;94826.63;5032404;28;20104;-78
2021/08/24 11:07:54;;;;;;;9.00;5.28;;;;;;;29.99;25.70;94831.34;5032038;28;20029;-78
2021/08/24 11:10:48;;;;;;;6.68;5.50;;;;;;;29.74;25.82;94820.13;5036778;22;20147;-78
2021/08/24 11:13:25;;;;;;;18.48;4.95;;;;;;;29.85;25.70;94824.56;5004104;28;20056;-78
2021/08/24 11:16:19;;;;;;;6.95;4.55;;;;;;;30.01;25.31;94815.66;5012697;28;20033;-78
2021/08/24 11:18:49;;;;;;;11.05;4.32;;;;;;;30.09;24.91;94822.72;5004709;28;20045;-78
2021/08/24 11:21:37;;;;;;;10.43;4.60;;;;;;;30.06;24.83;94815.41;4994694;28;20524;-78
2021/08/24 11:24:26;;;;;;;13.07;5.15;;;;;;;30.03;24.94;94816.88;4994499;28;20022;-78
2021/08/24 11:27:00;;;;;;;5.85;4.38;;;;;;;30.13;24.98;94812.88;4995575;28;20033;-78
2021/08/24 11:29:28;;;;;;;5.03;4.53;;;;;;;30.21;24.70;94822.56;5012428;28;20034;-78
2021/08/24 11:32:16;;;;;;;8.25;4.72;;;;;;;30.25;24.64;94820.72;5011076;28;20417;-78
2021/08/24 11:34:58;;;;;;;8.15;5.38;;;;;;;30.29;24.30;94816.22;5010972;28;20065;-78
2021/08/24 11:38:03;;;;;;;13.48;6.28;;;;;;;30.28;24.50;94814.66;4993959;28;20041;-78
2021/08/24 11:40:57;;;;;;;11.98;4.40;;;;;;;30.37;24.22;94811.72;4994367;28;20505;-78
2021/08/24 11:43:39;;;;;;;11.30;4.60;;;;;;;30.43;24.17;94803.03;5004782;28;20037;-78
2021/08/24 11:46:11;;;;;;;8.27;4.43;;;;;;;30.49;24.23;94803.50;5011288;28;20109;-78
2021/08/24 11:48:38;;;;;;;;;;;;;;;30.56;23.92;94802.84;4995733;28;20464;-78
2021/08/24 11:51:15;;;;;;;7.10;5.47;;;;;;;30.44;24.37;94809.19;5011589;28;19979;-78
2021/08/24 11:53:53;;;;;;;9.52;5.35;;;;;;;30.37;23.97;94807.16;5011420;28;20029;-78
2021/08/24 11:56:28;;;;;;;7.82;4.30;;;;;;;30.36;23.60;94805.59;5011213;28;20033;-78